Погода Рыбалкона неделю

Республика Дагестан, Россия

22 - 28 мая
  • 22мая
    Сегодня
    +11°
    +24°
    Ясно и безоблачно
    ВремяПогодаТемператураВлажностьДавлениеВетер, м/сВероятность осадков
    00:00Ясно и безоблачно+13°C70 %765 мм2.6 м/с2 %
    03:00Практически безоблачно+12°C70 %764 мм2.7 м/с2 %
    06:00Ясно и безоблачно+14°C72 %764 мм3.3 м/с2 %
    09:00Практически безоблачно+22°C42 %764 мм6.3 м/с2 %
    12:00Небольшая облачность+24°C30 %764 мм7.3 м/с2 %
    15:00Ясно и безоблачно+23°C30 %763 мм7.0 м/с2 %
    18:00Небольшая облачность+20°C42 %763 мм5.6 м/с2 %
    21:00Облачно с прояснениями+14°C73 %763 мм3.3 м/с2 %
  • 23мая
    Четверг
    +12°
    +26°
    Ясно и безоблачно
    ВремяПогодаТемператураВлажностьДавлениеВетер, м/сВероятность осадков
    00:00Облачно с прояснениями+13°C86 %763 мм3.0 м/с2 %
    03:00Ясно и безоблачно+11°C84 %762 мм2.6 м/с2 %
    06:00Ясно и безоблачно+14°C69 %762 мм2.5 м/с2 %
    09:00Ясно и безоблачно+22°C34 %762 мм4.2 м/с2 %
    12:00Ясно и безоблачно+25°C25 %761 мм5.8 м/с2 %
    15:00Ясно и безоблачно+25°C29 %761 мм6.0 м/с2 %
    18:00Ясно и безоблачно+22°C41 %761 мм5.2 м/с2 %
    21:00Ясно и безоблачно+15°C71 %762 мм2.6 м/с2 %
  • 24мая
    Пятница
    +14°
    +26°
    Практически безоблачно
    ВремяПогодаТемператураВлажностьДавлениеВетер, м/сВероятность осадков
    00:00Ясно и безоблачно+14°C86 %761 мм2.0 м/с2 %
    03:00Ясно и безоблачно+12°C93 %761 мм2.0 м/с2 %
    06:00Ясно и безоблачно+15°C86 %762 мм2.5 м/с2 %
    09:00Ясно и безоблачно+24°C41 %762 мм5.8 м/с2 %
    12:00Практически безоблачно+25°C35 %763 мм6.9 м/с12 %
    15:00Практически безоблачно+24°C34 %763 мм7.7 м/с35 %
    18:00Практически безоблачно+19°C72 %764 мм7.3 м/с28 %
    21:00Небольшая облачность+16°C73 %766 мм5.7 м/с2 %
  • 25мая
    Суббота
    +14°
    +20°
    Облачно с прояснениями
    ВремяПогодаТемператураВлажностьДавлениеВетер, м/сВероятность осадков
    00:00Облачно с прояснениями+15°C62 %766 мм5.6 м/с3 %
    03:00Облачно с прояснениями+15°C57 %766 мм6.5 м/с3 %
    06:00Облачно с прояснениями+16°C60 %767 мм6.8 м/с4 %
    09:00Пасмурно, сплошная облачность+19°C43 %768 мм10.2 м/с4 %
    12:00Пасмурно, сплошная облачность+19°C33 %768 мм9.9 м/с3 %
    15:00Облачно с прояснениями+19°C33 %768 мм10.4 м/с3 %
    18:00Облачно с прояснениями+17°C40 %767 мм9.8 м/с4 %
    21:00Практически безоблачно+15°C58 %767 мм7.8 м/с2 %
  • 26мая
    Воскресенье
    +12°
    +22°
    Небольшая облачность
    ВремяПогодаТемператураВлажностьДавлениеВетер, м/сВероятность осадков
    00:00Практически безоблачно+15°C60 %766 мм7.8 м/с2 %
    03:00Облачно с прояснениями+15°C59 %765 мм9.0 м/с2 %
    06:00Облачно с прояснениями+16°C58 %765 мм8.1 м/с3 %
    09:00Облачно с прояснениями+20°C47 %764 мм11.3 м/с7 %
    12:00Облачно с прояснениями+21°C42 %763 мм11.3 м/с4 %
    15:00Небольшая облачность+20°C40 %763 мм11.5 м/с2 %
    18:00Практически безоблачно+18°C50 %763 мм9.2 м/с3 %
    21:00Ясно и безоблачно+16°C55 %764 мм6.4 м/с8 %
Мы используем cookies
Соглашаюсь